Terminal Aerodrome Forecast
Issued by NWS

Home | Current Version | Previous Version | Text Only | Print | Product List | Glossary On
Versions: 1 2 3 4 5 6 7 8 9 10 11 12 13 14 15 16 17 18 19 20 21 22 23 24 25
000
FTUS41 KBUF 311700
TAFJHW
TAF
KJHW 311730Z 3118/0118 20007KT P6SM SCT020
     FM312200 25008KT P6SM BKN040
     FM010400 24009KT P6SM BKN020
     FM010800 28006KT P6SM OVC012
     FM011000 VRB03KT P6SM -SN OVC007
     FM011200 00000KT 5SM -SN OVC007
     FM011500 02004KT 2SM -SN OVC012
      AMD LTD TO CLD VIS AND WIND=

USA.gov is the U.S. government's official web portal to all federal, state and local government web resources and services.